Map

Track Data

SID SEASON NUMBER BASIN SUBBASIN NAME ISO_TIME NATURE LAT LON WMO_WIND WMO_PRES WMO_AGENCY TRACK_TYPE DIST2LAND LANDFALL IFLAG USA_AGENCY USA_ATCF_ID USA_LAT USA_LON USA_RECORD USA_STATUS USA_WIND USA_PRES USA_SSHS USA_R34_NE USA_R34_SE USA_R34_SW USA_R34_NW USA_R50_NE USA_R50_SE USA_R50_SW USA_R50_NW USA_R64_NE USA_R64_SE USA_R64_SW USA_R64_NW USA_POCI USA_ROCI USA_RMW USA_EYE TOKYO_LAT TOKYO_LON TOKYO_GRADE TOKYO_WIND TOKYO_PRES TOKYO_R50_DIR TOKYO_R50_LONG TOKYO_R50_SHORT TOKYO_R30_DIR TOKYO_R30_LONG TOKYO_R30_SHORT TOKYO_LAND CMA_LAT CMA_LON CMA_CAT CMA_WIND CMA_PRES HKO_LAT HKO_LON HKO_CAT HKO_WIND HKO_PRES NEWDELHI_LAT NEWDELHI_LON NEWDELHI_GRADE NEWDELHI_WIND NEWDELHI_PRES NEWDELHI_CI NEWDELHI_DP NEWDELHI_POCI REUNION_LAT REUNION_LON REUNION_TYPE REUNION_WIND REUNION_PRES REUNION_TNUM REUNION_CI REUNION_RMW REUNION_R34_NE REUNION_R34_SE REUNION_R34_SW REUNION_R34_NW REUNION_R50_NE REUNION_R50_SE REUNION_R50_SW REUNION_R50_NW REUNION_R64_NE REUNION_R64_SE REUNION_R64_SW REUNION_R64_NW BOM_LAT BOM_LON BOM_TYPE BOM_WIND BOM_PRES BOM_TNUM BOM_CI BOM_RMW BOM_R34_NE BOM_R34_SE BOM_R34_SW BOM_R34_NW BOM_R50_NE BOM_R50_SE BOM_R50_SW BOM_R50_NW BOM_R64_NE BOM_R64_SE BOM_R64_SW BOM_R64_NW BOM_ROCI BOM_POCI BOM_EYE BOM_POS_METHOD BOM_PRES_METHOD NADI_LAT NADI_LON NADI_CAT NADI_WIND NADI_PRES WELLINGTON_LAT WELLINGTON_LON WELLINGTON_WIND WELLINGTON_PRES DS824_LAT DS824_LON DS824_STAGE DS824_WIND DS824_PRES TD9636_LAT TD9636_LON TD9636_STAGE TD9636_WIND TD9636_PRES TD9635_LAT TD9635_LON TD9635_WIND TD9635_PRES TD9635_ROCI NEUMANN_LAT NEUMANN_LON NEUMANN_CLASS NEUMANN_WIND NEUMANN_PRES MLC_LAT MLC_LON MLC_CLASS MLC_WIND MLC_PRES USA_GUST BOM_GUST BOM_GUST_PER REUNION_GUST REUNION_GUST_PER USA_SEAHGT USA_SEARAD_NE USA_SEARAD_SE USA_SEARAD_SW USA_SEARAD_NW STORM_SPEED STORM_DIR
1934001S12073 1934 2 SI MM NOT_NAMED 1934-01-01 06:00:00 NR -12.3000 73.4000 main 1888 1832 __________O___ -1 -12.3000 73.4000 7 12 207
1934001S12073 1934 2 SI MM NOT_NAMED 1934-01-01 09:00:00 NR -12.8127 73.1350 main 1832 1786 __________P___ -1 -12.8127 73.1350 7 12 207
1934001S12073 1934 2 SI MM NOT_NAMED 1934-01-01 12:00:00 NR -13.3202 72.8657 main 1786 1732 __________P___ -1 -13.3202 72.8657 7 11 208
1934001S12073 1934 2 SI MM NOT_NAMED 1934-01-01 15:00:00 NR -13.8176 72.5884 main 1732 1678 __________P___ -1 -13.8176 72.5884 7 11 209
1934001S12073 1934 2 SI MM NOT_NAMED 1934-01-01 18:00:00 NR -14.3000 72.3000 main 1678 1630 __________O___ -1 -14.3000 72.3000 7 11 211
1934001S12073 1934 2 SI MM NOT_NAMED 1934-01-01 21:00:00 NR -14.7628 71.9990 main 1625 1578 __________P___ -1 -14.7628 71.9990 7 11 213
1934001S12073 1934 2 SI MM NOT_NAMED 1934-01-02 00:00:00 NR -15.2025 71.6924 main 1578 1531 __________P___ -1 -15.2025 71.6924 7 10 215
1934001S12073 1934 2 SI MM NOT_NAMED 1934-01-02 03:00:00 NR -15.6159 71.3896 main 1531 1484 __________P___ -1 -15.6159 71.3896 7 10 216
1934001S12073 1934 2 SI MM NOT_NAMED 1934-01-02 06:00:00 NR -16.0000 71.1000 main 1484 1453 __________O___ -1 -16.0000 71.1000 7 9 215
1934001S12073 1934 2 SI MM NOT_NAMED 1934-01-02 09:00:00 NR -16.3576 70.8391 main 1439 1408 __________P___ -1 -16.3576 70.8391 7 8 215
1934001S12073 1934 2 SI MM NOT_NAMED 1934-01-02 12:00:00 NR -16.6872 70.5918 main 1408 1377 __________P___ -1 -16.6872 70.5918 7 8 216
1934001S12073 1934 2 SI MM NOT_NAMED 1934-01-02 15:00:00 NR -16.9982 70.3486 main 1367 1337 __________P___ -1 -16.9982 70.3486 7 8 217
1934001S12073 1934 2 SI MM NOT_NAMED 1934-01-02 18:00:00 NR -17.3000 70.1000 main 1337 1297 __________O___ -1 -17.3000 70.1000 7 8 219
1934001S12073 1934 2 SI MM NOT_NAMED 1934-01-02 21:00:00 NR -17.6193 69.8281 main 1297 1268 __________P___ -1 -17.6193 69.8281 7 8 220
1934001S12073 1934 2 SI MM NOT_NAMED 1934-01-03 00:00:00 NR -17.9300 69.5499 main 1258 1229 __________P___ -1 -17.9300 69.5499 7 8 221
1934001S12073 1934 2 SI MM NOT_NAMED 1934-01-03 03:00:00 NR -18.2256 69.2718 main 1229 1191 __________P___ -1 -18.2256 69.2718 7 8 223
1934001S12073 1934 2 SI MM NOT_NAMED 1934-01-03 06:00:00 NR -18.5000 69.0000 main 1191 1166 __________O___ -1 -18.5000 69.0000 7 7 222
1934001S12073 1934 2 SI MM NOT_NAMED 1934-01-03 09:00:00 NR -18.7543 68.7626 main 1164 1129 __________P___ -1 -18.7543 68.7626 7 7 222
1934001S12073 1934 2 SI MM NOT_NAMED 1934-01-03 12:00:00 NR -18.9869 68.5293 main 1129 1105 __________P___ -1 -18.9869 68.5293 7 6 226
1934001S12073 1934 2 SI MM NOT_NAMED 1934-01-03 15:00:00 NR -19.2011 68.2814 main 1105 1071 __________P___ -1 -19.2011 68.2814 7 7 230
1934001S12073 1934 2 SI MM NOT_NAMED 1934-01-03 18:00:00 NR -19.4000 68.0000 main 1071 1037 __________O___ -1 -19.4000 68.0000 7 7 237
1934001S12073 1934 2 SI MM NOT_NAMED 1934-01-03 21:00:00 NR -19.5853 67.6647 main 1037 994 __________P___ -1 -19.5853 67.6647 7 8 242
1934001S12073 1934 2 SI MM NOT_NAMED 1934-01-04 00:00:00 NR -19.7575 67.2946 main 993 951 __________P___ -1 -19.7575 67.2946 7 8 245
1934001S12073 1934 2 SI MM NOT_NAMED 1934-01-04 03:00:00 NR -19.9259 66.9021 main 951 907 __________P___ -1 -19.9259 66.9021 7 8 245
1934001S12073 1934 2 SI MM NOT_NAMED 1934-01-04 06:00:00 NR -20.1000 66.5000 main 907 865 __________O___ -1 -20.1000 66.5000 7 8 243
1934001S12073 1934 2 SI MM NOT_NAMED 1934-01-04 09:00:00 NR -20.3047 66.1113 main 865 823 __________P___ -1 -20.3047 66.1113 7 8 241
1934001S12073 1934 2 SI MM NOT_NAMED 1934-01-04 12:00:00 NR -20.5146 65.7151 main 823 782 __________P___ -1 -20.5146 65.7151 7 9 241
1934001S12073 1934 2 SI MM NOT_NAMED 1934-01-04 15:00:00 NR -20.7172 65.3113 main 782 741 __________P___ -1 -20.7172 65.3113 7 9 243
1934001S12073 1934 2 SI MM NOT_NAMED 1934-01-04 18:00:00 NR -20.9000 64.9000 main 741 701 __________O___ -1 -20.9000 64.9000 7 8 247
1934001S12073 1934 2 SI MM NOT_NAMED 1934-01-04 21:00:00 NR -21.0377 64.5097 main 701 661 __________P___ -1 -21.0377 64.5097 7 8 251
1934001S12073 1934 2 SI MM NOT_NAMED 1934-01-05 00:00:00 NR -21.1563 64.1087 main 662 623 __________P___ -1 -21.1563 64.1087 7 8 253
1934001S12073 1934 2 SI MM NOT_NAMED 1934-01-05 03:00:00 NR -21.2718 63.6784 main 623 574 __________P___ -1 -21.2718 63.6784 7 9 254
1934001S12073 1934 2 SI MM NOT_NAMED 1934-01-05 06:00:00 NR -21.4000 63.2000 main 574 526 __________O___ -1 -21.4000 63.2000 7 10 253
1934001S12073 1934 2 SI MM NOT_NAMED 1934-01-05 09:00:00 NR -21.5688 62.6546 main 529 472 __________P___ -1 -21.5688 62.6546 7 11 252
1934001S12073 1934 2 SI MM NOT_NAMED 1934-01-05 12:00:00 NR -21.7500 62.0603 main 472 423 __________P___ -1 -21.7500 62.0603 7 12 252
1934001S12073 1934 2 SI MM NOT_NAMED 1934-01-05 15:00:00 NR -21.9311 61.4358 main 414 367 __________P___ -1 -21.9311 61.4358 7 12 253
1934001S12073 1934 2 SI MM NOT_NAMED 1934-01-05 18:00:00 NR -22.1000 60.8000 main 367 327 __________O___ -1 -22.1000 60.8000 7 12 254
1934001S12073 1934 2 SI MM NOT_NAMED 1934-01-05 21:00:00 NR -22.2671 60.1865 main 327 289 __________P___ -1 -22.2671 60.1865 7 12 255
1934001S12073 1934 2 SI MM NOT_NAMED 1934-01-06 00:00:00 NR -22.4165 59.5656 main 289 260 __________P___ -1 -22.4165 59.5656 7 12 257
1934001S12073 1934 2 SI MM NOT_NAMED 1934-01-06 03:00:00 NR -22.5327 58.9368 main 255 242 __________P___ -1 -22.5327 58.9368 7 12 261
1934001S12073 1934 2 SI MM NOT_NAMED 1934-01-06 06:00:00 NR -22.6000 58.3000 main 242 234 __________O___ -1 -22.6000 58.3000 7 12 266
1934001S12073 1934 2 SI MM NOT_NAMED 1934-01-06 09:00:00 NR -22.6080 57.6483 main 234 190 __________P___ -1 -22.6080 57.6483 7 12 272
1934001S12073 1934 2 SI MM NOT_NAMED 1934-01-06 12:00:00 NR -22.5670 56.9916 main 190 147 __________P___ -1 -22.5670 56.9916 7 12 275
1934001S12073 1934 2 SI MM NOT_NAMED 1934-01-06 15:00:00 NR -22.4924 56.3392 main 142 112 __________P___ -1 -22.4924 56.3392 7 12 278
1934001S12073 1934 2 SI MM NOT_NAMED 1934-01-06 18:00:00 NR -22.4000 55.7000 main 112 105 __________O___ -1 -22.4000 55.7000 7 12 278
1934001S12073 1934 2 SI MM NOT_NAMED 1934-01-06 21:00:00 NR -22.3178 55.0735 main 113 113 __________P___ -1 -22.3178 55.0735 7 12 279
1934001S12073 1934 2 SI MM NOT_NAMED 1934-01-07 00:00:00 NR -22.2217 54.4626 main 130 130 __________P___ -1 -22.2217 54.4626 7 11 280
1934001S12073 1934 2 SI MM NOT_NAMED 1934-01-07 03:00:00 NR -22.1148 53.8704 main 170 170 __________P___ -1 -22.1148 53.8704 7 11 282
1934001S12073 1934 2 SI MM NOT_NAMED 1934-01-07 06:00:00 NR -22.0000 53.3000 main 220 220 __________O___ -1 -22.0000 53.3000 7 11 283
1934001S12073 1934 2 SI MM NOT_NAMED 1934-01-07 09:00:00 NR -21.8772 52.7577 main 263 263 __________P___ -1 -21.8772 52.7577 7 10 284
1934001S12073 1934 2 SI MM NOT_NAMED 1934-01-07 12:00:00 NR -21.7488 52.2352 main 317 317 __________P___ -1 -21.7488 52.2352 7 10 285
1934001S12073 1934 2 SI MM NOT_NAMED 1934-01-07 15:00:00 NR -21.6210 51.7201 main 348 295 __________P___ -1 -21.6210 51.7201 7 10 284
1934001S12073 1934 2 SI MM NOT_NAMED 1934-01-07 18:00:00 NR -21.5000 51.2000 main 295 242 __________O___ -1 -21.5000 51.2000 7 10 285
1934001S12073 1934 2 SI MM NOT_NAMED 1934-01-07 21:00:00 NR -21.3787 50.7140 main 242 189 __________P___ -1 -21.3787 50.7140 7 9 284
1934001S12073 1934 2 SI MM NOT_NAMED 1934-01-08 00:00:00 NR -21.2669 50.2123 main 189 136 __________P___ -1 -21.2669 50.2123 7 10 282
1934001S12073 1934 2 SI MM NOT_NAMED 1934-01-08 03:00:00 NR -21.1719 49.6545 main 136 63 __________P___ -1 -21.1719 49.6545 7 11 278
1934001S12073 1934 2 SI MM NOT_NAMED 1934-01-08 06:00:00 NR -21.1000 49.0000 main 63 0 __________O___ -1 -21.1000 49.0000 7 14 276
1934001S12073 1934 2 SI MM NOT_NAMED 1934-01-08 09:00:00 NR -21.0213 48.2115 main 0 0 __________P___ -1 -21.0213 48.2115 7 16 275
1934001S12073 1934 2 SI MM NOT_NAMED 1934-01-08 12:00:00 NR -20.9678 47.3253 main 0 0 __________P___ -1 -20.9678 47.3253 7 17 272
1934001S12073 1934 2 SI MM NOT_NAMED 1934-01-08 15:00:00 NR -20.9552 46.3766 main 0 0 __________P___ -1 -20.9552 46.3766 7 18 269
1934001S12073 1934 2 SI MM NOT_NAMED 1934-01-08 18:00:00 NR -21.0000 45.4000 main 0 0 __________O___ -1 -21.0000 45.4000 7 19 265
1934001S12073 1934 2 SI MM NOT_NAMED 1934-01-08 21:00:00 NR -21.1112 44.3633 main 0 0 __________P___ -1 -21.1112 44.3633 7 20 262
1934001S12073 1934 2 SI MM NOT_NAMED 1934-01-09 00:00:00 NR -21.2779 43.3177 main 23 23 __________P___ -1 -21.2779 43.3177 7 19 259
1934001S12073 1934 2 SI MM NOT_NAMED 1934-01-09 03:00:00 NR -21.4803 42.3379 main 117 117 __________P___ -1 -21.4803 42.3379 7 17 256
1934001S12073 1934 2 SI MM NOT_NAMED 1934-01-09 06:00:00 NR -21.7000 41.5000 main 183 183 __________O___ -1 -21.7000 41.5000 7 14 253
1934001S12073 1934 2 SI MM NOT_NAMED 1934-01-09 09:00:00 NR -21.8826 40.9096 main 239 239 __________P___ -1 -21.8826 40.9096 7 10 248
1934001S12073 1934 2 SI MM NOT_NAMED 1934-01-09 12:00:00 NR -22.0855 40.4626 main 278 278 __________P___ -1 -22.0855 40.4626 7 9 240
1934001S12073 1934 2 SI MM NOT_NAMED 1934-01-09 15:00:00 NR -22.3209 40.0844 main 318 318 __________P___ -1 -22.3209 40.0844 7 9 234
1934001S12073 1934 2 SI MM NOT_NAMED 1934-01-09 18:00:00 NR -22.6000 39.7000 main 361 361 __________O___ -1 -22.6000 39.7000 7 11 236
1934001S12073 1934 2 SI MM NOT_NAMED 1934-01-09 21:00:00 NR -22.9249 39.1210 main 358 308 __________P___ -1 -22.9249 39.1210 7 13 237
1934001S12073 1934 2 SI MM NOT_NAMED 1934-01-10 00:00:00 NR -23.2917 38.5326 main 299 255 __________P___ -1 -23.2917 38.5326 7 13 233
1934001S12073 1934 2 SI MM NOT_NAMED 1934-01-10 03:00:00 NR -23.6874 38.0025 main 255 213 __________P___ -1 -23.6874 38.0025 7 12 227
1934001S12073 1934 2 SI MM NOT_NAMED 1934-01-10 06:00:00 NR -24.1000 37.6000 main 213 195 __________O___ -1 -24.1000 37.6000 7 10 214
1934001S12073 1934 2 SI MM NOT_NAMED 1934-01-10 09:00:00 NR -24.5216 37.3956 main 197 194 __________P___ -1 -24.5216 37.3956 7 9 196
1934001S12073 1934 2 SI MM NOT_NAMED 1934-01-10 12:00:00 NR -24.9562 37.3255 main 207 207 __________P___ -1 -24.9562 37.3255 7 9 182
1934001S12073 1934 2 SI MM NOT_NAMED 1934-01-10 15:00:00 NR -25.3877 37.3428 main 232 232 __________P___ -1 -25.3877 37.3428 7 9 175
1934001S12073 1934 2 SI MM NOT_NAMED 1934-01-10 18:00:00 NR -25.8000 37.4000 main 267 267 __________O___ -1 -25.8000 37.4000 7 7 184
1934001S12073 1934 2 SI MM NOT_NAMED 1934-01-10 21:00:00 NR -26.0802 37.2815 main 277 276 __________P___ -1 -26.0802 37.2815 7 6 197
1934001S12073 1934 2 SI MM NOT_NAMED 1934-01-11 00:00:00 NR -26.3537 37.2115 main 291 291 __________P___ -1 -26.3537 37.2115 7 6 178
1934001S12073 1934 2 SI MM NOT_NAMED 1934-01-11 03:00:00 NR -26.7004 37.2853 main 321 321 __________P___ -1 -26.7004 37.2853 7 9 158
1934001S12073 1934 2 SI MM NOT_NAMED 1934-01-11 06:00:00 NR -27.2000 37.6000 main 383 383 __________O___ -1 -27.2000 37.6000 7 16 147
1934001S12073 1934 2 SI MM NOT_NAMED 1934-01-11 09:00:00 NR -28.0419 38.2622 main 495 495 __________P___ -1 -28.0419 38.2622 7 23 143
1934001S12073 1934 2 SI MM NOT_NAMED 1934-01-11 12:00:00 NR -29.0188 39.1812 main 637 637 __________P___ -1 -29.0188 39.1812 7 26 138
1934001S12073 1934 2 SI MM NOT_NAMED 1934-01-11 15:00:00 NR -29.9857 40.2618 main 661 661 __________P___ -1 -29.9857 40.2618 7 26 133
1934001S12073 1934 2 SI MM NOT_NAMED 1934-01-11 18:00:00 NR -30.8000 41.4000 main 680 676 __________O___ -1 -30.8000 41.4000 7 24 125
1934001S12073 1934 2 SI MM NOT_NAMED 1934-01-11 21:00:00 NR -31.3579 42.5039 main 698 691 __________P___ -1 -31.3579 42.5039 7 21 116
1934001S12073 1934 2 SI MM NOT_NAMED 1934-01-12 00:00:00 NR -31.6965 43.5627 main 698 696 __________P___ -1 -31.6965 43.5627 7 19 107
1934001S12073 1934 2 SI MM NOT_NAMED 1934-01-12 03:00:00 NR -31.8871 44.5894 main 705 703 __________P___ -1 -31.8871 44.5894 7 18 100
1934001S12073 1934 2 SI MM NOT_NAMED 1934-01-12 06:00:00 NR -32.0000 45.6000 main 714 __________O___ -1 -32.0000 45.6000 7 17 98

About IBTrACS Database

This database is a web-friendly format of International Best Track Archive for Climate Stewardship (IBTrACS), a global best track data archive curated by NOAA dating back to 1842.

Updated: 2021-11-26